CheckWX is a tool to help pilots better visualize weather data.  It is not intended as a substitute for an official pre-flight weather briefing.

23:30:52 UTC

LFPN METAR
Toussus-le-Noble Airport
Toussus-le-Noble, France
Current

31 mins ago

LFPN 022300Z AUTO 27002KT CAVOK 14/09 Q1019
Observed
Jul-2 @ 23:00 UTC
Wind
  • 270° at 2 KTS
Visibility
10,000+ meters
Flight Rules
VFR
Cloud Levels
  • Clear skies
Temperature
14°C / 57°F
Dewpoint
C / 48°F
Humidity
72%
Altimeter
30.09" Hg
Pressure
1018.92 hPa
Previous

1 hour ago

LFPN 022230Z AUTO 25005KT CAVOK 15/10 Q1018
Observed
Jul-2 @ 22:30 UTC
Wind
  • 250° at 5 KTS
Visibility
10,000+ meters
Flight Rules
VFR
Cloud Levels
  • Clear skies
Temperature
15°C / 59°F
Dewpoint
10°C / 50°F
Humidity
72%
Altimeter
30.06" Hg
Pressure
1017.92 hPa
Previous

2 hours ago

LFPN 022200Z AUTO 26004KT CAVOK 16/10 Q1018
Observed
Jul-2 @ 22:00 UTC
Wind
  • 260° at 4 KTS
Visibility
10,000+ meters
Flight Rules
VFR
Cloud Levels
  • Clear skies
Temperature
16°C / 61°F
Dewpoint
10°C / 50°F
Humidity
68%
Altimeter
30.06" Hg
Pressure
1017.92 hPa